createdAt,value
2023-05-15T00:01:54.795Z,2.90
2023-05-15T00:04:21.356Z,3.70
2023-05-15T00:06:47.819Z,3.40
2023-05-15T00:09:15.377Z,3.27
2023-05-15T00:11:41.833Z,3.37
2023-05-15T00:14:08.373Z,3.20
2023-05-15T00:16:35.005Z,3.40
2023-05-15T00:19:01.522Z,3.60
2023-05-15T00:21:27.951Z,3.33
2023-05-15T00:23:54.310Z,3.67
2023-05-15T00:26:23.521Z,3.40
2023-05-15T00:28:50.803Z,4.13
2023-05-15T00:31:17.244Z,2.80
2023-05-15T00:33:43.723Z,3.30
2023-05-15T00:36:10.239Z,3.67
2023-05-15T00:38:36.696Z,3.20
2023-05-15T00:41:06.397Z,3.50
2023-05-15T00:43:33.172Z,2.87
2023-05-15T00:46:00.286Z,3.27
2023-05-15T00:48:29.065Z,3.50
2023-05-15T00:50:57.693Z,3.43
2023-05-15T00:53:24.533Z,4.07
2023-05-15T00:55:52.994Z,3.87
2023-05-15T00:58:21.822Z,3.40
2023-05-15T01:00:51.053Z,3.30
2023-05-15T01:03:17.799Z,3.50
2023-05-15T01:05:45.044Z,3.07
2023-05-15T01:08:34.309Z,3.30
2023-05-15T01:11:03.950Z,3.80
2023-05-15T01:13:30.505Z,3.50
2023-05-15T01:15:58.918Z,3.27
2023-05-15T01:18:32.050Z,3.60
2023-05-15T01:21:01.557Z,3.90
2023-05-15T01:23:47.036Z,3.70
2023-05-15T01:26:38.982Z,3.80
2023-05-15T01:29:47.875Z,3.93
2023-05-15T01:32:23.807Z,3.30
2023-05-15T01:35:02.647Z,3.90
2023-05-15T01:37:31.935Z,4.30
2023-05-15T01:40:02.409Z,3.53
2023-05-15T01:42:33.406Z,3.60
2023-05-15T01:45:04.604Z,3.20
2023-05-15T01:47:48.631Z,3.33
2023-05-15T01:50:17.417Z,3.70
2023-05-15T01:52:49.105Z,3.67
2023-05-15T01:55:16.476Z,4.03
2023-05-15T01:57:43.430Z,3.80
2023-05-15T02:00:11.668Z,3.50
2023-05-15T02:02:42.210Z,3.20
2023-05-15T02:05:09.730Z,3.63
2023-05-15T02:07:36.886Z,3.43
2023-05-15T02:10:03.858Z,3.40
2023-05-15T02:12:31.696Z,3.37
2023-05-15T02:14:59.622Z,3.30
2023-05-15T02:17:27.966Z,3.23
2023-05-15T02:19:54.417Z,3.30
2023-05-15T02:22:20.875Z,3.13
2023-05-15T02:24:47.370Z,3.90
2023-05-15T02:27:28.953Z,3.60
2023-05-15T02:30:01.583Z,3.57
2023-05-15T02:32:39.529Z,3.17
2023-05-15T02:35:41.054Z,3.30
2023-05-15T02:38:15.607Z,3.30
2023-05-15T02:40:44.277Z,3.20
2023-05-15T02:43:11.300Z,3.10
2023-05-15T02:45:39.367Z,3.57
2023-05-15T02:48:07.060Z,3.50
2023-05-15T02:50:33.910Z,3.30
2023-05-15T02:53:07.584Z,3.63
2023-05-15T02:55:34.582Z,3.73
2023-05-15T02:58:01.455Z,3.60
2023-05-15T03:00:28.183Z,3.50
2023-05-15T03:02:54.927Z,3.07
2023-05-15T03:05:21.442Z,3.00
2023-05-15T03:07:47.974Z,3.20
2023-05-15T03:10:14.535Z,3.00
2023-05-15T03:12:41.133Z,3.03
2023-05-15T03:15:07.931Z,3.43
2023-05-15T03:17:35.596Z,3.60
2023-05-15T03:20:02.156Z,3.37
2023-05-15T03:22:28.666Z,3.20
2023-05-15T03:24:55.122Z,3.23
2023-05-15T03:27:21.631Z,2.97
2023-05-15T03:29:50.852Z,3.17
2023-05-15T03:32:17.801Z,3.30
2023-05-15T03:34:44.637Z,3.40
2023-05-15T03:37:11.114Z,3.20
2023-05-15T03:39:37.595Z,3.10
2023-05-15T03:42:04.734Z,3.17
2023-05-15T03:44:31.232Z,3.53
2023-05-15T03:46:57.738Z,3.00
2023-05-15T03:49:24.276Z,3.40
2023-05-15T03:51:50.739Z,3.10
2023-05-15T03:54:17.589Z,3.50
2023-05-15T03:56:44.418Z,3.30
2023-05-15T03:59:11.015Z,4.03
2023-05-15T04:01:44.246Z,3.33
2023-05-15T04:04:17.694Z,3.73
2023-05-15T04:06:44.108Z,3.43
2023-05-15T04:09:10.499Z,3.50
2023-05-15T04:11:36.982Z,3.07
2023-05-15T04:14:03.508Z,2.83
2023-05-15T04:16:30.008Z,3.30
2023-05-15T04:18:56.586Z,3.10
2023-05-15T04:21:23.091Z,3.37
2023-05-15T04:23:49.553Z,2.97
2023-05-15T04:26:16.436Z,3.10
2023-05-15T04:28:52.396Z,3.50
2023-05-15T04:31:23.859Z,3.13
2023-05-15T04:33:51.310Z,3.53
2023-05-15T04:36:17.870Z,3.23
2023-05-15T04:38:44.315Z,3.63
2023-05-15T04:41:11.241Z,3.57
2023-05-15T04:43:38.803Z,3.67
2023-05-15T04:46:05.950Z,3.40
2023-05-15T04:48:32.380Z,3.50
2023-05-15T04:50:58.754Z,4.20
2023-05-15T04:53:25.347Z,3.37
2023-05-15T04:55:51.768Z,3.10
2023-05-15T04:58:18.189Z,3.67
2023-05-15T05:00:44.632Z,3.70
2023-05-15T05:03:11.545Z,3.47
2023-05-15T05:05:38.084Z,3.93
2023-05-15T05:08:04.653Z,3.60
2023-05-15T05:10:31.099Z,3.43
2023-05-15T05:12:57.479Z,3.50
2023-05-15T05:15:24.097Z,3.60
2023-05-15T05:17:51.268Z,3.77
2023-05-15T05:20:17.784Z,3.53
2023-05-15T05:22:44.277Z,3.73
2023-05-15T05:25:10.805Z,3.87
2023-05-15T05:27:37.260Z,3.77
2023-05-15T05:30:04.081Z,3.50
2023-05-15T05:32:30.518Z,3.37
2023-05-15T05:34:56.920Z,3.97
2023-05-15T05:37:23.559Z,3.67
2023-05-15T05:39:49.937Z,3.40
2023-05-15T05:42:16.458Z,3.50
2023-05-15T05:44:42.956Z,3.67
2023-05-15T05:47:09.446Z,3.40
2023-05-15T05:49:36.145Z,3.40
2023-05-15T05:52:07.993Z,3.50
2023-05-15T05:54:34.647Z,3.35
2023-05-15T05:57:01.184Z,3.20
2023-05-15T05:59:29.089Z,3.40
2023-05-15T06:01:55.614Z,3.30
2023-05-15T06:04:22.306Z,3.43
2023-05-15T06:06:49.961Z,3.50
2023-05-15T06:09:16.615Z,3.77
2023-05-15T06:11:43.084Z,3.80
2023-05-15T06:14:09.511Z,3.70
2023-05-15T06:16:35.992Z,3.80
2023-05-15T06:19:02.619Z,3.63
2023-05-15T06:21:29.172Z,3.40
2023-05-15T06:23:55.610Z,3.63
2023-05-15T06:26:22.441Z,3.47
2023-05-15T06:28:48.840Z,3.10
2023-05-15T06:31:15.543Z,3.30
2023-05-15T06:33:41.967Z,3.60
2023-05-15T06:36:08.808Z,3.67
2023-05-15T06:38:35.217Z,4.63
2023-05-15T06:41:01.718Z,4.13
2023-05-15T06:43:28.177Z,3.42
2023-05-15T06:45:54.547Z,3.58
2023-05-15T06:48:21.032Z,3.20
2023-05-15T06:50:47.480Z,3.00
2023-05-15T06:53:14.612Z,2.72
2023-05-15T06:55:41.244Z,2.70
2023-05-15T06:58:07.747Z,2.33
2023-05-15T07:00:34.174Z,2.83
2023-05-15T07:03:00.636Z,2.80
2023-05-15T07:05:27.419Z,2.83
2023-05-15T07:07:54.072Z,2.72
2023-05-15T07:10:20.681Z,2.85
2023-05-15T07:12:47.141Z,3.15
2023-05-15T07:15:13.551Z,2.83
2023-05-15T07:17:40.067Z,2.80
2023-05-15T07:20:07.073Z,2.60
2023-05-15T07:22:38.564Z,2.40
2023-05-15T07:25:08.780Z,2.75
2023-05-15T07:27:35.537Z,2.60
2023-05-15T07:30:03.979Z,2.78
2023-05-15T07:32:30.986Z,2.58
2023-05-15T07:34:57.528Z,2.70
2023-05-15T07:37:24.747Z,2.85
2023-05-15T07:39:51.656Z,2.83
2023-05-15T07:42:18.053Z,2.60
2023-05-15T07:44:45.971Z,3.42
2023-05-15T07:47:14.119Z,3.20
2023-05-15T07:49:40.549Z,3.03
2023-05-15T07:52:07.165Z,2.92
2023-05-15T07:54:33.702Z,3.40
2023-05-15T07:57:00.580Z,3.20
2023-05-15T07:59:27.231Z,3.40
2023-05-15T08:01:53.988Z,3.08
2023-05-15T08:04:20.489Z,2.83
2023-05-15T08:06:47.101Z,2.75
2023-05-15T08:09:13.588Z,3.42
2023-05-15T08:11:39.960Z,3.25
2023-05-15T08:14:06.362Z,3.45
2023-05-15T08:16:32.943Z,2.95
2023-05-15T08:19:03.539Z,2.97
2023-05-15T08:21:31.055Z,3.60
2023-05-15T08:23:58.969Z,3.20
2023-05-15T08:26:25.565Z,3.35
2023-05-15T08:28:52.217Z,3.17
2023-05-15T08:31:18.723Z,2.60
2023-05-15T08:33:45.209Z,2.90
2023-05-15T08:36:11.844Z,2.80
2023-05-15T08:38:38.312Z,2.75
2023-05-15T08:41:10.833Z,2.70
2023-05-15T08:43:39.220Z,3.10
2023-05-15T08:46:06.773Z,2.65
2023-05-15T08:48:38.298Z,2.40
2023-05-15T08:51:10.425Z,2.90
2023-05-15T08:53:37.456Z,2.70
2023-05-15T08:56:04.567Z,2.17
2023-05-15T08:58:32.550Z,2.72
2023-05-15T09:00:59.258Z,2.50
2023-05-15T09:03:26.190Z,2.20
2023-05-15T09:05:53.236Z,2.15
2023-05-15T09:08:22.117Z,2.63
2023-05-15T09:10:49.806Z,2.90
2023-05-15T09:13:17.163Z,3.05
2023-05-15T09:15:46.562Z,2.58
2023-05-15T09:18:14.683Z,2.40
2023-05-15T09:20:41.225Z,2.50
2023-05-15T09:23:23.068Z,2.53
2023-05-15T09:25:53.844Z,2.95
2023-05-15T09:28:32.317Z,2.50
2023-05-15T09:31:01.189Z,2.28
2023-05-15T09:33:36.124Z,2.20
2023-05-15T09:36:07.275Z,2.45
2023-05-15T09:38:34.752Z,2.30
2023-05-15T09:41:03.512Z,2.30
2023-05-15T09:43:33.208Z,2.50
2023-05-15T09:45:59.709Z,2.75
2023-05-15T09:48:26.371Z,2.53
2023-05-15T09:50:53.170Z,2.95
2023-05-15T09:53:21.785Z,3.03
2023-05-15T09:55:49.209Z,2.90
2023-05-15T09:58:19.097Z,3.47
2023-05-15T10:00:48.082Z,3.00
2023-05-15T10:03:16.837Z,3.05
2023-05-15T10:05:44.307Z,3.22
2023-05-15T10:08:12.241Z,3.28
2023-05-15T10:10:38.863Z,3.50
2023-05-15T10:13:08.097Z,3.10
2023-05-15T10:15:34.992Z,3.05
2023-05-15T10:18:04.600Z,3.70
2023-05-15T10:20:32.941Z,3.58
2023-05-15T10:23:02.290Z,3.95
2023-05-15T10:25:50.767Z,3.42
2023-05-15T10:28:18.697Z,3.85
2023-05-15T10:30:46.326Z,3.72
2023-05-15T10:33:13.487Z,4.00
2023-05-15T10:35:40.228Z,4.35
2023-05-15T10:38:06.954Z,4.10
2023-05-15T10:40:37.241Z,3.60
2023-05-15T10:43:03.660Z,3.85
2023-05-15T10:45:31.966Z,3.80
2023-05-15T10:47:59.515Z,4.05
2023-05-15T10:50:26.948Z,4.43
2023-05-15T10:52:55.705Z,4.70
2023-05-15T10:55:22.862Z,3.70
2023-05-15T10:57:49.578Z,3.95
2023-05-15T11:00:21.918Z,3.55
2023-05-15T11:02:49.084Z,3.67
2023-05-15T11:05:15.623Z,3.53
2023-05-15T11:07:42.169Z,3.72
2023-05-15T11:10:30.289Z,3.40
2023-05-15T11:13:02.396Z,3.60
2023-05-15T11:15:42.132Z,3.80
2023-05-15T11:18:08.891Z,3.47
2023-05-15T11:20:58.707Z,3.70
2023-05-15T11:23:25.516Z,3.53
2023-05-15T11:25:58.097Z,6.25
2023-05-15T11:28:26.071Z,6.22
2023-05-15T11:30:54.495Z,8.05
2023-05-15T11:33:21.217Z,8.82
2023-05-15T11:35:48.459Z,8.45
2023-05-15T11:38:24.624Z,6.90
2023-05-15T11:40:56.499Z,6.28
2023-05-15T11:43:26.496Z,4.63
2023-05-15T11:45:57.765Z,4.75
2023-05-15T11:48:30.442Z,4.60
2023-05-15T11:50:56.954Z,4.63
2023-05-15T11:53:24.118Z,4.47
2023-05-15T11:55:52.987Z,4.00
2023-05-15T11:58:22.222Z,4.13
2023-05-15T12:00:50.024Z,3.10
2023-05-15T12:03:26.036Z,2.97
2023-05-15T12:05:59.109Z,2.72
2023-05-15T12:08:26.787Z,2.70
2023-05-15T12:10:53.237Z,2.50
2023-05-15T12:13:19.681Z,2.40
2023-05-15T12:15:46.885Z,2.20
2023-05-15T12:18:13.789Z,2.20
2023-05-15T12:20:45.009Z,2.25
2023-05-15T12:23:14.596Z,1.85
2023-05-15T12:25:41.639Z,2.20
2023-05-15T12:28:08.509Z,1.80
2023-05-15T12:30:35.622Z,2.05
2023-05-15T12:33:07.738Z,2.13
2023-05-15T12:35:45.229Z,2.13
2023-05-15T12:38:16.575Z,2.55
2023-05-15T12:40:45.338Z,2.70
2023-05-15T12:43:13.468Z,3.17
2023-05-15T12:45:42.555Z,2.90
2023-05-15T12:48:14.643Z,2.40
2023-05-15T12:50:44.926Z,2.83
2023-05-15T12:53:15.104Z,2.42
2023-05-15T12:55:43.517Z,3.10
2023-05-15T12:58:12.744Z,3.00
2023-05-15T13:00:41.951Z,2.95
2023-05-15T13:03:10.693Z,2.55
2023-05-15T13:05:37.982Z,2.72
2023-05-15T13:08:07.264Z,2.70
2023-05-15T13:10:38.037Z,2.58
2023-05-15T13:13:04.522Z,3.33
2023-05-15T13:15:37.120Z,2.88
2023-05-15T13:18:06.675Z,2.72
2023-05-15T13:20:42.499Z,2.80
2023-05-15T13:23:11.114Z,2.78
2023-05-15T13:25:37.899Z,3.03
2023-05-15T13:28:05.997Z,3.25
2023-05-15T13:30:34.297Z,3.50
2023-05-15T13:33:01.499Z,3.88
2023-05-15T13:35:28.688Z,3.90
2023-05-15T13:37:56.342Z,4.65
2023-05-15T13:40:23.074Z,4.50
2023-05-15T13:42:50.232Z,4.68
2023-05-15T13:45:16.763Z,5.00
2023-05-15T13:47:44.197Z,5.07
2023-05-15T13:50:15.143Z,5.57
2023-05-15T13:52:43.124Z,5.60
2023-05-15T13:55:10.258Z,5.95
2023-05-15T13:57:37.917Z,5.63
2023-05-15T14:00:07.650Z,5.57
2023-05-15T14:02:34.341Z,5.85
2023-05-15T14:05:01.124Z,5.38
2023-05-15T14:07:27.659Z,5.93
2023-05-15T14:09:54.057Z,6.30
2023-05-15T14:12:22.038Z,6.60
2023-05-15T14:14:48.651Z,6.63
2023-05-15T14:17:15.718Z,7.63
2023-05-15T14:19:42.644Z,7.13
2023-05-15T14:22:09.084Z,7.40
2023-05-15T14:24:35.561Z,8.07
2023-05-15T14:27:01.990Z,7.82
2023-05-15T14:29:28.457Z,7.63
2023-05-15T14:31:54.908Z,8.13
2023-05-15T14:34:22.487Z,7.60
2023-05-15T14:36:49.842Z,7.35
2023-05-15T14:39:17.304Z,7.55
2023-05-15T14:41:44.593Z,6.80
2023-05-15T14:44:11.099Z,6.85
2023-05-15T14:46:37.963Z,7.07
2023-05-15T14:49:05.026Z,7.50
2023-05-15T14:51:32.213Z,7.60
2023-05-15T14:53:58.810Z,7.40
2023-05-15T14:56:25.873Z,6.82
2023-05-15T14:58:53.582Z,7.38
2023-05-15T15:01:20.790Z,7.45
2023-05-15T15:03:47.917Z,7.63
2023-05-15T15:06:14.592Z,7.40
2023-05-15T15:08:41.183Z,6.95
2023-05-15T15:11:07.875Z,8.30
2023-05-15T15:13:34.416Z,8.38
2023-05-15T15:16:00.907Z,8.73
2023-05-15T15:18:27.375Z,9.07
2023-05-15T15:20:53.850Z,8.30
2023-05-15T15:23:20.408Z,8.20
2023-05-15T15:25:46.848Z,7.97
2023-05-15T15:28:13.284Z,8.05
2023-05-15T15:30:39.907Z,7.75
2023-05-15T15:33:06.350Z,7.75
2023-05-15T15:35:32.757Z,6.93
2023-05-15T15:37:59.233Z,7.15
2023-05-15T15:40:26.024Z,6.88
2023-05-15T15:42:54.168Z,7.07
2023-05-15T15:45:20.750Z,6.75
2023-05-15T15:47:47.330Z,7.10
2023-05-15T15:50:13.781Z,7.10
2023-05-15T15:52:40.287Z,7.55
2023-05-15T15:55:07.449Z,7.30
2023-05-15T15:57:34.004Z,7.35
2023-05-15T16:00:00.418Z,6.53
2023-05-15T16:02:28.193Z,6.93
2023-05-15T16:04:54.762Z,7.68
2023-05-15T16:07:21.229Z,7.00
2023-05-15T16:09:51.421Z,8.20
2023-05-15T16:12:26.944Z,7.78
2023-05-15T16:14:54.084Z,7.75
2023-05-15T16:17:21.057Z,8.15
2023-05-15T16:19:47.564Z,8.23
2023-05-15T16:22:13.992Z,7.90
2023-05-15T16:24:40.843Z,7.90
2023-05-15T16:27:07.302Z,8.60
2023-05-15T16:29:33.740Z,8.68
2023-05-15T16:32:00.380Z,7.57
2023-05-15T16:34:27.394Z,7.03
2023-05-15T16:36:53.821Z,7.30
2023-05-15T16:39:20.271Z,6.95
2023-05-15T16:41:46.723Z,6.88
2023-05-15T16:44:13.412Z,7.20
2023-05-15T16:46:39.907Z,7.03
2023-05-15T16:49:06.561Z,6.72
2023-05-15T16:51:33.265Z,6.93
2023-05-15T16:53:59.673Z,7.18
2023-05-15T16:56:26.381Z,6.65
2023-05-15T16:58:55.710Z,7.78
2023-05-15T17:01:22.169Z,7.78
2023-05-15T17:03:48.754Z,8.50
2023-05-15T17:06:15.410Z,8.65
2023-05-15T17:08:43.448Z,9.15
2023-05-15T17:11:10.275Z,8.05
2023-05-15T17:13:36.688Z,8.52
2023-05-15T17:16:03.315Z,8.35
2023-05-15T17:18:29.911Z,7.80
2023-05-15T17:20:56.284Z,7.75
2023-05-15T17:23:23.205Z,8.30
2023-05-15T17:25:49.648Z,7.70
2023-05-15T17:28:16.079Z,7.93
2023-05-15T17:30:42.672Z,8.05
2023-05-15T17:33:09.159Z,7.65
2023-05-15T17:35:35.673Z,7.43
2023-05-15T17:38:02.132Z,7.75
2023-05-15T17:40:28.557Z,8.00
2023-05-15T17:42:55.021Z,7.50
2023-05-15T17:45:21.424Z,7.55
2023-05-15T17:47:49.136Z,8.10
2023-05-15T17:50:15.684Z,7.20
2023-05-15T17:52:42.140Z,7.60
2023-05-15T17:55:08.926Z,7.57
2023-05-15T17:57:35.387Z,8.50
2023-05-15T18:00:01.972Z,8.00
2023-05-15T18:02:38.658Z,7.53
2023-05-15T18:05:05.746Z,8.25
2023-05-15T18:07:32.178Z,8.25
2023-05-15T18:09:58.595Z,8.15
2023-05-15T18:12:25.016Z,11.27
2023-05-15T18:14:51.507Z,9.07
2023-05-15T18:17:18.117Z,9.38
2023-05-15T18:19:44.786Z,8.95
2023-05-15T18:22:11.652Z,8.68
2023-05-15T18:24:38.063Z,8.50
2023-05-15T18:27:04.796Z,8.43
2023-05-15T18:29:31.268Z,9.15
2023-05-15T18:31:57.792Z,8.00
2023-05-15T18:34:24.358Z,7.35
2023-05-15T18:36:51.988Z,7.72
2023-05-15T18:39:18.928Z,7.70
2023-05-15T18:41:45.466Z,7.55
2023-05-15T18:44:11.906Z,7.93
2023-05-15T18:46:38.643Z,7.32
2023-05-15T18:49:05.220Z,7.35
2023-05-15T18:51:31.818Z,48.58
2023-05-15T18:53:58.365Z,8.40
2023-05-15T18:56:25.216Z,8.45
2023-05-15T18:58:51.729Z,8.63
2023-05-15T19:01:18.373Z,8.05
2023-05-15T19:03:44.934Z,7.75
2023-05-15T19:06:13.311Z,7.43
2023-05-15T19:08:39.753Z,7.18
2023-05-15T19:11:06.238Z,7.30
2023-05-15T19:13:33.083Z,7.60
2023-05-15T19:15:59.516Z,7.65
2023-05-15T19:18:25.928Z,8.00
2023-05-15T19:20:52.421Z,7.90
2023-05-15T19:23:20.486Z,7.82
2023-05-15T19:25:47.039Z,8.00
2023-05-15T19:28:14.750Z,7.88
2023-05-15T19:30:41.546Z,8.65
2023-05-15T19:33:08.155Z,7.95
2023-05-15T19:35:36.712Z,8.00
2023-05-15T19:38:03.986Z,7.93
2023-05-15T19:40:30.532Z,8.25
2023-05-15T19:42:56.974Z,7.95
2023-05-15T19:45:23.476Z,8.88
2023-05-15T19:47:49.919Z,7.72
2023-05-15T19:50:16.452Z,7.85
2023-05-15T19:52:45.316Z,8.93
2023-05-15T19:55:12.223Z,8.55
2023-05-15T19:57:40.180Z,7.93
2023-05-15T20:00:08.005Z,7.80
2023-05-15T20:02:34.628Z,8.68
2023-05-15T20:05:01.195Z,9.00
2023-05-15T20:07:27.726Z,8.63
2023-05-15T20:09:55.374Z,8.85
2023-05-15T20:12:21.934Z,9.05
2023-05-15T20:14:49.536Z,8.70
2023-05-15T20:17:17.755Z,9.18
2023-05-15T20:19:44.356Z,9.32
2023-05-15T20:22:10.811Z,9.85
2023-05-15T20:24:38.446Z,10.05
2023-05-15T20:27:05.305Z,9.10
2023-05-15T20:29:31.713Z,10.23
2023-05-15T20:31:59.365Z,10.15
2023-05-15T20:34:25.934Z,10.20
2023-05-15T20:36:52.679Z,11.07
2023-05-15T20:39:20.121Z,9.90
2023-05-15T20:41:47.900Z,9.73
2023-05-15T20:44:14.319Z,8.93
2023-05-15T20:46:42.538Z,8.40
2023-05-15T20:49:08.963Z,8.82
2023-05-15T20:51:35.897Z,8.88
2023-05-15T20:54:02.382Z,8.30
2023-05-15T20:56:29.174Z,8.70
2023-05-15T20:58:56.854Z,8.60
2023-05-15T21:01:25.721Z,8.05
2023-05-15T21:03:52.270Z,7.95
2023-05-15T21:06:18.799Z,8.50
2023-05-15T21:08:45.209Z,8.40
2023-05-15T21:11:11.763Z,9.27
2023-05-15T21:13:38.321Z,9.93
2023-05-15T21:16:05.119Z,9.43
2023-05-15T21:18:31.570Z,9.30
2023-05-15T21:20:58.107Z,9.60
2023-05-15T21:23:24.561Z,9.93
2023-05-15T21:25:51.024Z,10.40
2023-05-15T21:28:17.458Z,9.35
2023-05-15T21:30:44.302Z,9.85
2023-05-15T21:33:10.874Z,9.15
2023-05-15T21:35:38.031Z,9.27
2023-05-15T21:38:04.553Z,9.00
2023-05-15T21:40:31.225Z,9.15
2023-05-15T21:42:57.683Z,9.07
2023-05-15T21:45:24.120Z,10.30
2023-05-15T21:47:50.702Z,10.05
2023-05-15T21:50:17.377Z,10.07
2023-05-15T21:52:43.807Z,10.82
2023-05-15T21:55:10.679Z,10.63
2023-05-15T21:57:37.085Z,9.43
2023-05-15T22:00:06.791Z,10.20
2023-05-15T22:02:33.212Z,10.15
2023-05-15T22:04:59.791Z,10.18
2023-05-15T22:07:26.224Z,9.80
2023-05-15T22:09:53.103Z,10.18
2023-05-15T22:12:21.057Z,9.80
2023-05-15T22:14:58.580Z,9.35
2023-05-15T22:17:27.082Z,9.48
2023-05-15T22:19:53.715Z,9.65
2023-05-15T22:22:20.846Z,11.02
2023-05-15T22:24:47.815Z,10.40
2023-05-15T22:27:16.472Z,11.35
2023-05-15T22:29:42.922Z,10.98
2023-05-15T22:32:09.455Z,11.27
2023-05-15T22:34:36.066Z,11.18
2023-05-15T22:37:02.527Z,12.23
2023-05-15T22:39:28.903Z,11.88
2023-05-15T22:41:55.880Z,11.23
2023-05-15T22:44:22.552Z,11.65
2023-05-15T22:46:49.575Z,12.43
2023-05-15T22:49:19.220Z,12.68
2023-05-15T22:51:45.787Z,12.75
2023-05-15T22:54:12.225Z,13.40
2023-05-15T22:56:38.652Z,13.82
2023-05-15T22:59:05.649Z,12.52
2023-05-15T23:01:32.226Z,12.40
2023-05-15T23:03:58.857Z,12.80
2023-05-15T23:06:25.359Z,14.33
2023-05-15T23:08:51.891Z,14.13
2023-05-15T23:11:18.309Z,15.87
2023-05-15T23:13:44.742Z,13.77
2023-05-15T23:16:11.212Z,15.20
2023-05-15T23:18:37.957Z,14.93
2023-05-15T23:21:04.762Z,13.33
2023-05-15T23:23:31.321Z,13.43
2023-05-15T23:25:57.735Z,12.37
2023-05-15T23:28:24.345Z,11.70
2023-05-15T23:30:54.700Z,13.43
2023-05-15T23:33:21.690Z,13.00
2023-05-15T23:35:48.139Z,12.60
2023-05-15T23:38:14.614Z,12.83
2023-05-15T23:40:41.031Z,13.23
2023-05-15T23:43:07.441Z,14.00
2023-05-15T23:45:35.172Z,15.10
2023-05-15T23:48:01.619Z,14.73
2023-05-15T23:50:28.651Z,14.37
2023-05-15T23:52:55.246Z,14.43
2023-05-15T23:55:21.697Z,14.60
2023-05-15T23:57:48.333Z,14.60
